createdAt,value
2019-02-19T00:01:00.860Z,8.53
2019-02-19T00:03:29.933Z,9.10
2019-02-19T00:06:00.351Z,7.50
2019-02-19T00:08:29.476Z,10.50
2019-02-19T00:11:00.086Z,8.37
2019-02-19T00:13:29.166Z,7.83
2019-02-19T00:15:58.236Z,6.43
2019-02-19T00:18:27.476Z,9.40
2019-02-19T00:20:56.592Z,7.43
2019-02-19T00:23:25.702Z,8.17
2019-02-19T00:25:54.777Z,7.33
2019-02-19T00:28:24.001Z,12.03
2019-02-19T00:30:53.096Z,6.80
2019-02-19T00:33:22.231Z,9.73
2019-02-19T00:35:51.358Z,6.97
2019-02-19T00:38:20.794Z,8.23
2019-02-19T00:40:52.392Z,8.60
2019-02-19T00:43:30.520Z,10.57
2019-02-19T00:46:00.730Z,7.40
2019-02-19T00:48:30.233Z,11.50
2019-02-19T00:50:59.518Z,11.10
2019-02-19T00:53:28.929Z,11.70
2019-02-19T00:56:00.737Z,10.40
2019-02-19T00:58:29.867Z,9.77
2019-02-19T01:00:59.031Z,10.60
2019-02-19T01:03:28.155Z,10.30
2019-02-19T01:05:57.380Z,13.70
2019-02-19T01:08:26.495Z,8.87
2019-02-19T01:10:55.587Z,9.77
2019-02-19T01:13:24.755Z,9.70
2019-02-19T01:15:53.803Z,10.00
2019-02-19T01:18:22.983Z,8.47
2019-02-19T01:20:53.625Z,8.87
2019-02-19T01:23:22.772Z,11.20
2019-02-19T01:25:51.835Z,9.17
2019-02-19T01:28:21.002Z,9.17
2019-02-19T01:30:50.153Z,8.43
2019-02-19T01:33:19.256Z,7.53
2019-02-19T01:35:48.356Z,9.00
2019-02-19T01:38:19.634Z,9.43
2019-02-19T01:40:48.700Z,11.43
2019-02-19T01:43:17.851Z,10.27
2019-02-19T01:45:46.987Z,7.97
2019-02-19T01:48:16.098Z,7.90
2019-02-19T01:50:47.238Z,6.80
2019-02-19T01:53:17.517Z,8.33
2019-02-19T01:55:46.601Z,8.50
2019-02-19T01:58:15.666Z,8.00
2019-02-19T02:00:44.755Z,8.73
2019-02-19T02:03:13.850Z,9.00
2019-02-19T02:05:44.141Z,8.43
2019-02-19T02:08:13.188Z,9.67
2019-02-19T02:10:42.362Z,8.63
2019-02-19T02:13:11.412Z,9.27
2019-02-19T02:15:42.771Z,7.87
2019-02-19T02:18:11.298Z,10.90
2019-02-19T02:20:43.176Z,11.13
2019-02-19T02:23:12.323Z,11.90
2019-02-19T02:25:42.641Z,9.87
2019-02-19T02:28:11.727Z,6.77
2019-02-19T02:30:40.861Z,8.87
2019-02-19T02:33:09.946Z,9.07
2019-02-19T02:35:39.101Z,7.87
2019-02-19T02:38:08.175Z,13.33
2019-02-19T02:40:37.312Z,9.50
2019-02-19T02:43:06.418Z,12.30
2019-02-19T02:45:35.651Z,11.37
2019-02-19T02:48:04.796Z,6.90
2019-02-19T02:50:33.916Z,10.43
2019-02-19T02:53:03.031Z,8.20
2019-02-19T02:55:32.156Z,10.77
2019-02-19T02:58:01.261Z,12.57
2019-02-19T03:00:30.439Z,10.80
2019-02-19T03:02:59.521Z,10.93
2019-02-19T03:05:30.411Z,10.60
2019-02-19T03:08:02.678Z,9.53
2019-02-19T03:10:31.868Z,9.50
2019-02-19T03:13:00.947Z,10.63
2019-02-19T03:15:31.434Z,7.77
2019-02-19T03:18:00.562Z,10.70
2019-02-19T03:20:29.722Z,10.63
2019-02-19T03:22:58.834Z,8.77
2019-02-19T03:25:27.943Z,13.27
2019-02-19T03:27:57.127Z,11.83
2019-02-19T03:30:29.985Z,14.30
2019-02-19T03:33:00.442Z,11.93
2019-02-19T03:35:30.896Z,13.50
2019-02-19T03:37:59.992Z,9.77
2019-02-19T03:40:29.776Z,9.17
2019-02-19T03:43:00.575Z,10.33
2019-02-19T03:45:29.985Z,9.63
2019-02-19T03:47:59.097Z,12.27
2019-02-19T03:50:31.217Z,11.10
2019-02-19T03:53:00.365Z,10.67
2019-02-19T03:55:29.447Z,12.27
2019-02-19T03:57:58.628Z,15.77
2019-02-19T04:00:27.729Z,10.87
2019-02-19T04:02:56.922Z,11.23
2019-02-19T04:05:27.092Z,11.53
2019-02-19T04:07:56.280Z,11.07
2019-02-19T04:10:25.453Z,10.47
2019-02-19T04:12:54.627Z,11.47
2019-02-19T04:15:23.861Z,11.50
2019-02-19T04:17:52.926Z,13.30
2019-02-19T04:20:22.021Z,11.57
2019-02-19T04:22:51.222Z,11.27
2019-02-19T04:25:24.441Z,12.63
2019-02-19T04:27:54.676Z,10.47
2019-02-19T04:30:23.808Z,11.10
2019-02-19T04:32:52.944Z,11.30
2019-02-19T04:35:24.973Z,14.63
2019-02-19T04:37:54.159Z,10.40
2019-02-19T04:40:23.228Z,11.07
2019-02-19T04:42:53.318Z,11.00
2019-02-19T04:45:23.733Z,11.20
2019-02-19T04:47:52.816Z,13.73
2019-02-19T04:50:21.982Z,10.87
2019-02-19T04:52:52.701Z,8.53
2019-02-19T04:55:23.799Z,9.57
2019-02-19T04:57:52.890Z,10.33
2019-02-19T05:00:23.197Z,9.60
2019-02-19T05:02:52.349Z,11.57
2019-02-19T05:05:21.493Z,10.73
2019-02-19T05:07:50.623Z,11.67
2019-02-19T05:10:19.703Z,11.13
2019-02-19T05:12:50.836Z,9.57
2019-02-19T05:15:19.947Z,11.47
2019-02-19T05:17:49.002Z,11.23
2019-02-19T05:20:18.109Z,11.83
2019-02-19T05:22:47.239Z,10.73
2019-02-19T05:25:18.373Z,13.07
2019-02-19T05:27:47.439Z,14.83
2019-02-19T05:30:16.603Z,12.47
2019-02-19T05:32:45.731Z,10.33
2019-02-19T05:35:14.919Z,10.77
2019-02-19T05:37:44.050Z,9.17
2019-02-19T05:40:13.132Z,8.77
2019-02-19T05:42:42.283Z,12.97
2019-02-19T05:45:11.435Z,10.07
2019-02-19T05:47:40.549Z,14.80
2019-02-19T05:50:09.812Z,25.53
2019-02-19T05:52:38.870Z,49.27
2019-02-19T05:55:08.018Z,46.10
2019-02-19T05:57:37.115Z,45.00
2019-02-19T06:00:06.990Z,35.23
2019-02-19T06:02:36.169Z,31.90
2019-02-19T06:05:06.080Z,39.07
2019-02-19T06:07:35.150Z,37.00
2019-02-19T06:10:04.826Z,40.90
2019-02-19T06:12:36.030Z,33.47
2019-02-19T06:15:06.202Z,35.97
2019-02-19T06:17:35.442Z,42.20
2019-02-19T06:20:06.093Z,36.53
2019-02-19T06:22:35.203Z,35.40
2019-02-19T06:25:05.807Z,30.40
2019-02-19T06:27:34.967Z,35.13
2019-02-19T06:30:04.138Z,47.70
2019-02-19T06:32:33.235Z,51.33
2019-02-19T06:35:04.597Z,36.90
2019-02-19T06:37:33.693Z,36.43
2019-02-19T06:40:02.817Z,44.57
2019-02-19T06:42:31.985Z,45.13
2019-02-19T06:45:03.981Z,51.30
2019-02-19T06:47:33.069Z,51.70
2019-02-19T06:50:02.197Z,49.40
2019-02-19T06:52:31.635Z,44.63
2019-02-19T06:55:02.320Z,40.00
2019-02-19T06:57:33.784Z,50.43
2019-02-19T07:00:04.758Z,51.90
2019-02-19T07:02:40.229Z,50.10
2019-02-19T07:05:19.569Z,60.40
2019-02-19T07:07:48.753Z,70.90
2019-02-19T07:10:19.082Z,47.63
2019-02-19T07:12:50.751Z,45.13
2019-02-19T07:15:21.520Z,39.67
2019-02-19T07:17:50.605Z,38.67
2019-02-19T07:20:20.937Z,124.87
2019-02-19T07:22:53.972Z,52.43
2019-02-19T07:25:24.613Z,49.37
2019-02-19T07:27:53.716Z,45.00
2019-02-19T07:30:24.293Z,46.50
2019-02-19T07:32:53.430Z,36.00
2019-02-19T07:35:24.785Z,37.90
2019-02-19T07:37:57.767Z,36.13
2019-02-19T07:40:32.997Z,35.50
2019-02-19T07:43:02.133Z,31.97
2019-02-19T07:45:31.224Z,32.93
2019-02-19T07:48:00.344Z,33.30
2019-02-19T07:50:29.746Z,30.87
2019-02-19T07:52:58.865Z,30.13
2019-02-19T07:55:30.500Z,22.97
2019-02-19T07:57:59.645Z,26.00
2019-02-19T08:00:28.776Z,28.00
2019-02-19T08:02:57.891Z,24.67
2019-02-19T08:05:27.089Z,26.00
2019-02-19T08:07:58.974Z,23.53
2019-02-19T08:10:30.414Z,28.03
2019-02-19T08:12:59.487Z,25.23
2019-02-19T08:15:28.589Z,28.80
2019-02-19T08:17:57.652Z,24.20
2019-02-19T08:20:28.928Z,27.13
2019-02-19T08:22:58.017Z,25.67
2019-02-19T08:25:27.124Z,27.50
2019-02-19T08:27:56.204Z,26.43
2019-02-19T08:30:25.283Z,23.43
2019-02-19T08:32:54.403Z,25.60
2019-02-19T08:35:23.509Z,23.20
2019-02-19T08:37:52.574Z,24.83
2019-02-19T08:40:21.681Z,26.00
2019-02-19T08:42:50.829Z,21.30
2019-02-19T08:45:19.871Z,23.33
2019-02-19T08:47:48.991Z,22.33
2019-02-19T08:50:21.933Z,24.63
2019-02-19T08:52:51.035Z,24.40
2019-02-19T08:55:20.096Z,24.20
2019-02-19T08:57:49.186Z,23.10
2019-02-19T09:00:19.471Z,23.60
2019-02-19T09:02:48.605Z,25.43
2019-02-19T09:05:17.765Z,25.83
2019-02-19T09:07:46.907Z,25.47
2019-02-19T09:10:16.038Z,20.93
2019-02-19T09:12:46.538Z,26.73
2019-02-19T09:15:16.831Z,22.97
2019-02-19T09:17:52.051Z,20.97
2019-02-19T09:20:17.982Z,25.20
2019-02-19T09:22:47.049Z,24.60
2019-02-19T09:25:16.278Z,22.67
2019-02-19T09:27:45.339Z,22.30
2019-02-19T09:30:14.537Z,20.17
2019-02-19T09:32:43.587Z,19.07
2019-02-19T09:35:12.709Z,19.47
2019-02-19T09:37:41.819Z,24.10
2019-02-19T09:40:10.933Z,23.23
2019-02-19T09:42:40.229Z,22.87
2019-02-19T09:45:09.424Z,22.30
2019-02-19T09:47:38.481Z,16.67
2019-02-19T09:50:08.453Z,15.87
2019-02-19T09:52:37.526Z,16.40
2019-02-19T09:55:09.193Z,20.50
2019-02-19T09:57:38.337Z,17.30
2019-02-19T10:00:09.137Z,18.90
2019-02-19T10:02:38.178Z,18.70
2019-02-19T10:05:08.799Z,15.20
2019-02-19T10:07:37.907Z,14.80
2019-02-19T10:10:11.246Z,15.90
2019-02-19T10:12:41.873Z,17.07
2019-02-19T10:15:12.159Z,16.13
2019-02-19T10:17:41.253Z,15.93
2019-02-19T10:20:13.421Z,18.83
2019-02-19T10:22:42.689Z,19.93
2019-02-19T10:25:12.547Z,14.23
2019-02-19T10:27:41.594Z,16.90
2019-02-19T10:30:13.730Z,18.77
2019-02-19T10:32:42.843Z,16.63
2019-02-19T10:35:12.215Z,15.63
2019-02-19T10:37:41.283Z,15.17
2019-02-19T10:40:12.490Z,16.73
2019-02-19T10:42:41.520Z,16.93
2019-02-19T10:45:13.041Z,23.27
2019-02-19T10:47:42.293Z,16.03
2019-02-19T10:50:12.995Z,18.83
2019-02-19T10:52:42.175Z,15.30
2019-02-19T10:55:11.412Z,13.47
2019-02-19T10:57:44.769Z,15.03
2019-02-19T11:00:16.995Z,16.20
2019-02-19T11:02:46.112Z,14.17
2019-02-19T11:05:17.329Z,16.10
2019-02-19T11:07:46.687Z,15.67
2019-02-19T11:10:15.869Z,16.27
2019-02-19T11:12:46.326Z,14.33
2019-02-19T11:15:17.326Z,13.70
2019-02-19T11:17:46.789Z,12.90
2019-02-19T11:20:15.948Z,12.97
2019-02-19T11:22:45.130Z,12.03
2019-02-19T11:25:14.911Z,15.53
2019-02-19T11:27:44.182Z,14.47
2019-02-19T11:30:14.983Z,12.40
2019-02-19T11:32:44.295Z,13.83
2019-02-19T11:35:15.625Z,14.77
2019-02-19T11:37:44.850Z,14.60
2019-02-19T11:40:15.113Z,13.10
2019-02-19T11:42:44.231Z,11.50
2019-02-19T11:45:14.057Z,10.87
2019-02-19T11:47:43.175Z,10.17
2019-02-19T11:50:13.943Z,5.13
2019-02-19T11:52:43.346Z,4.60
2019-02-19T11:55:13.046Z,5.67
2019-02-19T11:57:43.156Z,4.33
2019-02-19T12:00:15.472Z,4.80
2019-02-19T12:02:44.678Z,4.90
2019-02-19T12:05:13.886Z,4.53
2019-02-19T12:07:43.006Z,3.10
2019-02-19T12:10:12.292Z,5.83
2019-02-19T12:12:45.067Z,4.90
2019-02-19T12:15:14.204Z,5.77
2019-02-19T12:17:44.392Z,7.13
2019-02-19T12:20:14.725Z,4.23
2019-02-19T12:22:43.867Z,4.30
2019-02-19T12:25:14.054Z,8.40
2019-02-19T12:27:43.254Z,4.23
2019-02-19T12:30:13.161Z,5.17
2019-02-19T12:32:42.437Z,5.97
2019-02-19T12:35:13.788Z,5.10
2019-02-19T12:37:42.916Z,6.83
2019-02-19T12:40:12.013Z,5.53
2019-02-19T12:42:41.129Z,4.77
2019-02-19T12:45:10.950Z,5.63
2019-02-19T12:47:40.130Z,4.53
2019-02-19T12:50:10.971Z,4.83
2019-02-19T12:52:40.304Z,5.77
2019-02-19T12:55:10.290Z,5.13
2019-02-19T12:57:39.401Z,3.90
2019-02-19T13:00:13.446Z,4.77
2019-02-19T13:02:44.034Z,4.30
2019-02-19T13:05:13.605Z,6.17
2019-02-19T13:07:44.582Z,5.00
2019-02-19T13:10:14.621Z,2.77
2019-02-19T13:12:45.843Z,3.77
2019-02-19T13:15:15.618Z,6.47
2019-02-19T13:17:44.734Z,6.27
2019-02-19T13:20:14.246Z,2.17
2019-02-19T13:22:43.405Z,3.80
2019-02-19T13:25:12.448Z,6.53
2019-02-19T13:27:41.673Z,4.33
2019-02-19T13:30:13.209Z,3.87
2019-02-19T13:32:43.814Z,5.50
2019-02-19T13:35:13.163Z,4.53
2019-02-19T13:37:43.532Z,5.47
2019-02-19T13:40:13.021Z,3.47
2019-02-19T13:42:42.162Z,4.20
2019-02-19T13:45:12.269Z,3.80
2019-02-19T13:47:41.414Z,5.33
2019-02-19T13:50:13.555Z,5.83
2019-02-19T13:53:04.591Z,4.53
2019-02-19T13:55:39.479Z,6.73
2019-02-19T13:58:08.652Z,3.73
2019-02-19T14:00:39.932Z,5.13
2019-02-19T14:03:09.003Z,3.43
2019-02-19T14:05:38.163Z,5.67
2019-02-19T14:08:14.337Z,4.47
2019-02-19T14:10:38.235Z,4.13
2019-02-19T14:13:07.369Z,4.87
2019-02-19T14:16:00.547Z,5.97
2019-02-19T14:18:48.808Z,3.63
2019-02-19T14:21:46.301Z,3.50
2019-02-19T14:24:43.495Z,6.10
2019-02-19T14:27:20.731Z,5.63
2019-02-19T14:30:10.868Z,3.53
2019-02-19T14:33:05.188Z,3.63
2019-02-19T14:35:51.954Z,8.23
2019-02-19T14:38:52.767Z,5.57
2019-02-19T14:41:53.957Z,6.87
2019-02-19T14:44:43.611Z,5.97
2019-02-19T14:47:39.256Z,8.33
2019-02-19T14:50:27.935Z,5.37
2019-02-19T14:53:33.875Z,4.50
2019-02-19T14:56:40.379Z,6.90
2019-02-19T14:59:27.774Z,7.17
2019-02-19T15:02:17.340Z,4.70
2019-02-19T15:05:24.556Z,5.47
2019-02-19T15:08:12.693Z,5.80
2019-02-19T15:11:00.827Z,5.10
2019-02-19T15:13:53.970Z,4.07
2019-02-19T15:16:54.472Z,5.20
2019-02-19T15:19:39.199Z,5.67
2019-02-19T15:22:44.746Z,4.47
2019-02-19T15:25:44.159Z,4.57
2019-02-19T15:28:35.545Z,6.30
2019-02-19T15:31:22.452Z,5.17
2019-02-19T15:34:13.259Z,4.37
2019-02-19T15:37:00.142Z,5.07
2019-02-19T15:39:54.302Z,7.33
2019-02-19T15:42:40.951Z,4.47
2019-02-19T15:45:31.759Z,5.00
2019-02-19T15:48:22.905Z,4.93
2019-02-19T15:51:02.807Z,4.80
2019-02-19T15:53:53.795Z,4.57
2019-02-19T15:56:47.751Z,6.80
2019-02-19T15:59:34.333Z,4.57
2019-02-19T16:02:17.895Z,5.70
2019-02-19T16:05:12.433Z,4.97
2019-02-19T16:07:51.470Z,8.70
2019-02-19T16:10:35.883Z,8.10
2019-02-19T16:13:12.834Z,6.53
2019-02-19T16:16:06.622Z,9.23
2019-02-19T16:18:57.364Z,8.00
2019-02-19T16:22:00.487Z,5.03
2019-02-19T16:25:05.117Z,9.10
2019-02-19T16:27:53.102Z,7.03
2019-02-19T16:30:47.349Z,7.27
2019-02-19T16:33:23.986Z,5.97
2019-02-19T16:36:27.353Z,8.03
2019-02-19T16:39:10.510Z,6.80
2019-02-19T16:42:00.159Z,6.40
2019-02-19T16:44:40.529Z,5.77
2019-02-19T16:47:31.625Z,6.70
2019-02-19T16:50:26.649Z,9.27
2019-02-19T16:53:30.049Z,18.47
2019-02-19T16:56:20.466Z,13.13
2019-02-19T16:59:14.376Z,8.60
2019-02-19T17:02:02.589Z,6.50
2019-02-19T17:04:49.251Z,7.83
2019-02-19T17:07:35.913Z,6.00
2019-02-19T17:10:23.326Z,6.93
2019-02-19T17:13:21.491Z,6.00
2019-02-19T17:16:24.603Z,5.53
2019-02-19T17:19:11.328Z,6.10
2019-02-19T17:21:47.479Z,5.90
2019-02-19T17:24:53.003Z,8.23
2019-02-19T17:27:51.092Z,5.00
2019-02-19T17:30:38.132Z,6.13
2019-02-19T17:33:21.675Z,5.10
2019-02-19T17:39:16.411Z,28.13
2019-02-19T17:42:01.615Z,68.77
2019-02-19T17:44:50.110Z,56.10
2019-02-19T17:47:49.389Z,29.37
2019-02-19T17:50:40.437Z,9.97
2019-02-19T17:53:27.033Z,7.33
2019-02-19T17:56:21.144Z,6.87
2019-02-19T17:59:07.579Z,6.07
2019-02-19T18:01:57.194Z,8.30
2019-02-19T18:04:48.208Z,6.17
2019-02-19T18:07:42.103Z,11.83
2019-02-19T18:10:45.349Z,13.13
2019-02-19T18:13:21.716Z,11.13
2019-02-19T18:16:10.264Z,14.53
2019-02-19T18:18:49.150Z,13.50
2019-02-19T18:21:25.799Z,12.83
2019-02-19T18:23:54.915Z,13.70
2019-02-19T18:26:25.125Z,14.83
2019-02-19T18:28:55.564Z,12.17
2019-02-19T18:31:24.607Z,10.53
2019-02-19T18:33:54.671Z,12.20
2019-02-19T18:36:23.815Z,11.10
2019-02-19T18:38:55.130Z,14.00
2019-02-19T18:41:24.256Z,17.60
2019-02-19T18:43:53.662Z,14.47
2019-02-19T18:46:22.909Z,13.53
2019-02-19T18:48:53.173Z,14.33
2019-02-19T18:51:22.313Z,14.73
2019-02-19T18:53:51.400Z,26.47
2019-02-19T18:56:20.634Z,13.23
2019-02-19T18:58:49.764Z,10.07
2019-02-19T19:01:19.094Z,12.23
2019-02-19T19:03:48.246Z,12.00
2019-02-19T19:06:19.438Z,15.73
2019-02-19T19:08:48.639Z,12.47
2019-02-19T19:11:18.194Z,10.47
2019-02-19T19:13:47.337Z,10.23
2019-02-19T19:16:20.187Z,7.97
2019-02-19T19:18:50.496Z,11.53
2019-02-19T19:21:20.671Z,7.03
2019-02-19T19:23:49.773Z,7.27
2019-02-19T19:26:18.993Z,8.17
2019-02-19T19:28:48.052Z,6.20
2019-02-19T19:31:20.041Z,8.47
2019-02-19T19:33:49.087Z,16.73
2019-02-19T19:36:18.197Z,21.20
2019-02-19T19:38:47.272Z,10.30
2019-02-19T19:41:16.393Z,10.67
2019-02-19T19:43:45.435Z,18.53
2019-02-19T19:46:14.567Z,43.17
2019-02-19T19:48:43.617Z,16.77
2019-02-19T19:51:17.391Z,11.23
2019-02-19T19:53:44.641Z,9.10
2019-02-19T19:56:13.757Z,8.03
2019-02-19T19:58:43.897Z,8.07
2019-02-19T20:01:13.082Z,7.27
2019-02-19T20:03:42.117Z,6.23
2019-02-19T20:06:13.497Z,9.47
2019-02-19T20:08:42.553Z,10.67
2019-02-19T20:11:11.977Z,12.03
2019-02-19T20:13:41.106Z,19.13
2019-02-19T20:16:12.462Z,12.93
2019-02-19T20:18:41.643Z,17.67
2019-02-19T20:21:11.089Z,16.60
2019-02-19T20:23:40.473Z,13.20
2019-02-19T20:26:09.684Z,20.23
2019-02-19T20:28:39.078Z,22.93
2019-02-19T20:31:08.133Z,19.27
2019-02-19T20:33:37.954Z,17.53
2019-02-19T20:36:07.253Z,27.17
2019-02-19T20:38:36.397Z,26.13
2019-02-19T20:41:05.478Z,24.83
2019-02-19T20:43:34.544Z,19.87
2019-02-19T20:46:03.627Z,19.00
2019-02-19T20:48:32.697Z,18.80
2019-02-19T20:51:01.816Z,17.70
2019-02-19T20:53:30.983Z,19.97
2019-02-19T20:56:00.117Z,14.70
2019-02-19T20:58:29.327Z,13.53
2019-02-19T21:00:58.496Z,11.13
2019-02-19T21:03:27.609Z,10.97
2019-02-19T21:05:56.712Z,16.07
2019-02-19T21:08:25.809Z,18.20
2019-02-19T21:10:54.908Z,17.60
2019-02-19T21:13:24.104Z,21.60
2019-02-19T21:15:53.227Z,20.23
2019-02-19T21:18:22.305Z,20.23
2019-02-19T21:20:55.050Z,13.47
2019-02-19T21:23:24.237Z,9.33
2019-02-19T21:25:54.426Z,10.00
2019-02-19T21:28:24.771Z,15.57
2019-02-19T21:30:54.125Z,11.03
2019-02-19T21:33:23.302Z,13.07
2019-02-19T21:35:52.831Z,14.57
2019-02-19T21:38:23.026Z,15.77
2019-02-19T21:40:53.907Z,14.00
2019-02-19T21:43:23.031Z,13.90
2019-02-19T21:45:52.177Z,16.87
2019-02-19T21:48:21.293Z,13.87
2019-02-19T21:50:50.357Z,12.17
2019-02-19T21:53:19.461Z,14.37
2019-02-19T21:55:50.786Z,16.27
2019-02-19T21:58:19.905Z,20.33
2019-02-19T22:00:49.072Z,14.53
2019-02-19T22:03:18.186Z,12.73
2019-02-19T22:05:47.271Z,14.83
2019-02-19T22:08:16.320Z,16.47
2019-02-19T22:10:45.443Z,17.23
2019-02-19T22:13:14.536Z,14.43
2019-02-19T22:15:43.695Z,15.23
2019-02-19T22:18:12.842Z,14.37
2019-02-19T22:20:52.656Z,15.37
2019-02-19T22:23:21.713Z,14.83
2019-02-19T22:25:50.771Z,16.40
2019-02-19T22:28:22.970Z,14.67
2019-02-19T22:30:52.182Z,10.37
2019-02-19T22:33:21.277Z,12.67
2019-02-19T22:35:50.369Z,12.50
2019-02-19T22:38:19.463Z,13.57
2019-02-19T22:40:54.934Z,14.10
2019-02-19T22:43:19.411Z,15.63
2019-02-19T22:45:48.566Z,11.20
2019-02-19T22:48:17.586Z,12.30
2019-02-19T22:50:46.741Z,14.20
2019-02-19T22:53:42.397Z,12.17
2019-02-19T22:56:21.294Z,11.57
2019-02-19T22:58:52.159Z,12.90
2019-02-19T23:01:39.638Z,16.13
2019-02-19T23:04:08.754Z,13.63
2019-02-19T23:06:39.345Z,12.73
2019-02-19T23:09:08.501Z,14.43
2019-02-19T23:11:37.583Z,13.87
2019-02-19T23:14:06.609Z,11.00
2019-02-19T23:16:35.744Z,13.57
2019-02-19T23:19:04.848Z,14.27
2019-02-19T23:21:33.968Z,13.57
2019-02-19T23:24:03.056Z,16.70
2019-02-19T23:26:33.697Z,15.50
2019-02-19T23:29:02.791Z,13.60
2019-02-19T23:31:31.878Z,14.80
2019-02-19T23:34:01.017Z,14.73
2019-02-19T23:37:04.324Z,15.03
2019-02-19T23:39:43.659Z,14.37
2019-02-19T23:42:09.061Z,11.90
2019-02-19T23:44:38.215Z,11.57
2019-02-19T23:47:07.295Z,15.23
2019-02-19T23:49:36.398Z,11.13
2019-02-19T23:52:05.527Z,10.40
2019-02-19T23:54:34.593Z,11.10
2019-02-19T23:57:03.740Z,12.30
2019-02-19T23:59:32.843Z,13.27
